Time;durP1;ratioP1;P1;durP2;ratioP2;P2;SDS_P1;SDS_P2;PMS_P1;PMS_P2;Temp;Humidity;BMP_temperature;BMP_pressure;BME280_temperature;BME280_humidity;BME280_pressure;Samples;Min_cycle;Max_cycle;Signal;HPM_P1;HPM_P2
2021/10/18 00:00:28;;;;;;;63.67;19.35;;;15.10;99.90;;;;;;6193807;23;20284;-91
2021/10/18 00:02:54;;;;;;;108.55;22.05;;;15.00;99.90;;;;;;6193303;23;20001;-91
2021/10/18 00:05:19;;;;;;;112.97;24.65;;;15.10;99.90;;;;;;6167338;23;20192;-92
2021/10/18 00:07:45;;;;;;;100.13;23.10;;;15.00;99.90;;;;;;6166600;23;20005;-91
2021/10/18 00:10:12;;;;;;;55.03;22.00;;;15.10;99.90;;;;;;6193614;23;20017;-92
2021/10/18 00:12:39;;;;;;;80.65;23.80;;;15.10;99.90;;;;;;6193414;23;20004;-93
2021/10/18 00:15:06;;;;;;;46.83;22.27;;;15.10;99.90;;;;;;6193842;23;19997;-91
2021/10/18 00:17:33;;;;;;;123.38;27.80;;;15.20;99.90;;;;;;6193423;23;20059;-91
2021/10/18 00:19:58;;;;;;;96.88;26.35;;;15.20;99.90;;;;;;6167043;23;20297;-92
2021/10/18 00:22:24;;;;;;;80.15;28.73;;;15.20;99.90;;;;;;6193509;23;20060;-91
2021/10/18 00:24:50;;;;;;;123.93;31.63;;;15.10;99.90;;;;;;6203534;23;20106;-92
2021/10/18 00:27:16;;;;;;;119.40;29.95;;;15.10;99.90;;;;;;6194626;23;20008;-91
2021/10/18 00:29:41;;;;;;;121.75;29.75;;;15.00;99.90;;;;;;6166934;23;19997;-91
2021/10/18 00:32:07;;;;;;;88.65;28.17;;;15.10;99.90;;;;;;6193905;23;20009;-91
2021/10/18 00:34:33;;;;;;;82.80;26.23;;;15.10;99.90;;;;;;6193271;23;20213;-91
2021/10/18 00:36:59;;;;;;;110.88;27.85;;;15.10;99.90;;;;;;6167088;23;20008;-91
2021/10/18 00:39:24;;;;;;;75.18;28.30;;;15.10;99.90;;;;;;6193128;23;19993;-91
2021/10/18 00:41:50;;;;;;;96.70;26.20;;;15.10;99.90;;;;;;6192668;23;20192;-91
2021/10/18 00:44:16;;;;;;;88.75;23.23;;;15.10;99.90;;;;;;6192973;23;20289;-91
2021/10/18 00:46:43;;;;;;;90.75;22.75;;;15.10;99.90;;;;;;6193066;23;19993;-90
2021/10/18 00:49:09;;;;;;;83.13;22.23;;;15.10;99.90;;;;;;6193390;23;20197;-91
2021/10/18 00:51:35;;;;;;;58.92;20.38;;;15.10;99.90;;;;;;6193256;23;19993;-91
2021/10/18 00:54:03;;;;;;;46.35;20.83;;;15.00;99.90;;;;;;6167095;23;20071;-92
2021/10/18 00:56:32;;;;;;;58.70;21.38;;;15.10;99.90;;;;;;6193308;23;20048;-93
2021/10/18 00:59:00;;;;;;;42.30;19.20;;;15.00;99.90;;;;;;6193692;23;19997;-92
2021/10/18 01:01:26;;;;;;;63.63;21.88;;;15.10;99.90;;;;;;6193419;23;20058;-92
2021/10/18 01:03:53;;;;;;;48.72;21.40;;;15.00;99.90;;;;;;6166359;23;20019;-90
2021/10/18 01:06:18;;;;;;;61.75;22.33;;;15.10;99.90;;;;;;6193592;23;19993;-92
2021/10/18 01:08:44;;;;;;;71.57;23.60;;;15.10;99.90;;;;;;6167364;23;20066;-92
2021/10/18 01:11:10;;;;;;;46.75;22.60;;;15.10;99.90;;;;;;6167425;23;19993;-91
2021/10/18 01:13:36;;;;;;;74.95;25.65;;;15.20;99.90;;;;;;6166630;23;20032;-90
2021/10/18 01:16:02;;;;;;;69.97;25.67;;;15.10;99.90;;;;;;6192773;23;19993;-91
2021/10/18 01:18:28;;;;;;;100.63;28.65;;;15.10;99.90;;;;;;6192944;23;20005;-92
2021/10/18 01:20:54;;;;;;;83.82;29.38;;;15.10;99.90;;;;;;6166749;23;20166;-91
2021/10/18 01:23:20;;;;;;;66.68;28.30;;;15.10;99.90;;;;;;6192949;23;20012;-92
2021/10/18 01:25:45;;;;;;;80.45;31.77;;;15.10;99.90;;;;;;6192309;23;19997;-92
2021/10/18 01:28:12;;;;;;;64.38;29.25;;;15.10;99.90;;;;;;6192619;23;20307;-91
2021/10/18 01:30:38;;;;;;;74.70;33.20;;;15.20;99.90;;;;;;6167058;23;20291;-91
2021/10/18 01:33:04;;;;;;;70.00;31.48;;;15.20;99.90;;;;;;6166763;23;20008;-91
2021/10/18 01:35:30;;;;;;;72.50;34.58;;;15.20;99.90;;;;;;6192765;23;20044;-91
2021/10/18 01:37:55;;;;;;;71.22;32.42;;;15.20;99.90;;;;;;6167477;23;19993;-91
2021/10/18 01:40:23;;;;;;;65.93;31.92;;;15.30;99.90;;;;;;6166353;23;20028;-91
2021/10/18 01:42:49;;;;;;;61.92;30.00;;;15.20;99.90;;;;;;6192171;23;20021;-92
2021/10/18 01:45:18;;;;;;;77.82;32.58;;;15.30;99.90;;;;;;6192714;23;19993;-92
2021/10/18 01:47:43;;;;;;;72.93;31.20;;;15.30;99.90;;;;;;6166218;23;20031;-91
2021/10/18 01:50:16;;;;;;;63.55;29.52;;;15.20;99.90;;;;;;6193047;23;20003;-92
2021/10/18 01:52:43;;;;;;;64.70;27.20;;;15.20;99.90;;;;;;6193106;23;19993;-91
2021/10/18 01:55:09;;;;;;;61.67;27.60;;;15.20;99.90;;;;;;6192226;23;20001;-92
2021/10/18 01:57:36;;;;;;;52.85;26.80;;;15.10;99.90;;;;;;6166799;23;19997;-92
2021/10/18 02:00:04;;;;;;;66.32;27.23;;;15.10;99.90;;;;;;6166556;23;20001;-91
2021/10/18 02:02:29;;;;;;;60.67;26.55;;;15.10;99.90;;;;;;6192995;23;20008;-91
2021/10/18 02:04:55;;;;;;;49.47;25.77;;;15.10;99.90;;;;;;6166951;23;19993;-91
2021/10/18 02:07:21;;;;;;;60.78;27.15;;;15.10;99.90;;;;;;6166308;23;20005;-91
2021/10/18 02:09:47;;;;;;;58.10;27.20;;;15.00;99.90;;;;;;6166788;23;19997;-91
2021/10/18 02:12:12;;;;;;;86.80;28.27;;;15.10;99.90;;;;;;6192167;23;19993;-92
2021/10/18 02:14:38;;;;;;;66.30;27.95;;;15.10;99.90;;;;;;6191835;23;20399;-91
2021/10/18 02:17:04;;;;;;;69.28;29.58;;;15.10;99.90;;;;;;6168169;23;20047;-93
2021/10/18 02:19:29;;;;;;;78.65;28.73;;;15.00;99.90;;;;;;6202986;23;19993;-92
2021/10/18 02:21:55;;;;;;;61.47;28.25;;;15.10;99.90;;;;;;6192928;23;20005;-91
2021/10/18 02:24:23;;;;;;;116.25;33.78;;;15.10;99.90;;;;;;6192681;23;20004;-92
2021/10/18 02:26:49;;;;;;;102.55;29.83;;;15.20;99.90;;;;;;6166683;23;20005;-92
2021/10/18 02:29:15;;;;;;;114.15;32.25;;;15.20;99.90;;;;;;6166574;23;20017;-92
2021/10/18 02:31:41;;;;;;;112.60;33.05;;;15.20;99.90;;;;;;6166072;23;20028;-90
2021/10/18 02:34:07;;;;;;;160.07;36.67;;;15.20;99.90;;;;;;6192880;23;19993;-91
2021/10/18 02:36:32;;;;;;;133.45;38.63;;;15.30;99.90;;;;;;6192600;23;20272;-91
2021/10/18 02:38:58;;;;;;;166.65;37.75;;;15.30;99.90;;;;;;6192722;23;20189;-91
2021/10/18 02:41:24;;;;;;;94.32;35.97;;;15.30;99.90;;;;;;6192907;23;20001;-92
2021/10/18 02:43:50;;;;;;;127.90;37.72;;;15.30;99.90;;;;;;6192394;23;19997;-90
2021/10/18 02:46:16;;;;;;;155.07;39.15;;;15.30;99.90;;;;;;6166254;23;20056;-92
2021/10/18 02:48:41;;;;;;;184.02;43.67;;;15.40;99.90;;;;;;6193106;23;20052;-91
2021/10/18 02:51:07;;;;;;;112.50;38.53;;;15.30;99.90;;;;;;6192759;23;20000;-91
2021/10/18 02:53:33;;;;;;;147.40;41.33;;;15.40;99.90;;;;;;6192305;23;20001;-91
2021/10/18 02:55:58;;;;;;;184.32;40.85;;;15.40;99.90;;;;;;6192190;23;20056;-93
2021/10/18 02:58:24;;;;;;;202.18;42.13;;;15.40;99.90;;;;;;6192325;23;20047;-91
2021/10/18 03:00:50;;;;;;;143.95;40.63;;;15.40;99.90;;;;;;6166504;23;20001;-91
2021/10/18 03:03:16;;;;;;;165.95;41.28;;;15.40;99.90;;;;;;6192593;23;20001;-91
2021/10/18 03:05:41;;;;;;;269.15;42.00;;;15.40;99.90;;;;;;6166944;23;20000;-90
2021/10/18 03:08:07;;;;;;;180.20;40.63;;;15.40;99.90;;;;;;6168334;23;20304;-90
2021/10/18 03:10:33;;;;;;;190.50;37.63;;;15.30;99.90;;;;;;6194123;23;20057;-91
2021/10/18 03:12:59;;;;;;;179.02;37.17;;;15.40;99.90;;;;;;6167459;23;20008;-92
2021/10/18 03:15:25;;;;;;;119.43;34.75;;;15.40;99.90;;;;;;6194714;23;19989;-92
2021/10/18 03:17:51;;;;;;;149.18;36.13;;;15.30;99.90;;;;;;6168232;23;20004;-93
2021/10/18 03:20:17;;;;;;;105.85;32.97;;;15.30;99.90;;;;;;6194497;23;20174;-92
2021/10/18 03:22:43;;;;;;;157.18;34.88;;;15.40;99.90;;;;;;6194059;23;20005;-91
2021/10/18 03:25:09;;;;;;;123.88;32.70;;;15.30;99.90;;;;;;6194199;23;20281;-91
2021/10/18 03:27:35;;;;;;;98.35;29.70;;;15.40;99.90;;;;;;6167709;23;20004;-93
2021/10/18 03:30:02;;;;;;;101.80;28.33;;;15.40;99.90;;;;;;6167770;23;20051;-92
2021/10/18 03:32:27;;;;;;;94.57;27.55;;;15.30;99.90;;;;;;6194205;23;19997;-91
2021/10/18 03:34:53;;;;;;;132.68;29.70;;;15.30;99.90;;;;;;6168323;23;19993;-91
2021/10/18 03:37:19;;;;;;;96.82;26.20;;;15.30;99.90;;;;;;6194031;23;20379;-92
2021/10/18 03:39:44;;;;;;;133.95;30.33;;;15.30;99.90;;;;;;6194100;23;20005;-91
2021/10/18 03:42:10;;;;;;;66.38;27.30;;;15.30;99.90;;;;;;6194053;23;20146;-91
2021/10/18 03:44:36;;;;;;;61.78;25.27;;;15.30;99.90;;;;;;6194306;23;20333;-91
2021/10/18 03:47:01;;;;;;;64.05;25.23;;;15.30;99.90;;;;;;6194641;23;19997;-91
2021/10/18 03:49:27;;;;;;;88.90;26.77;;;15.30;99.90;;;;;;6167772;23;20008;-90
2021/10/18 03:51:53;;;;;;;96.03;26.73;;;15.30;99.90;;;;;;6167624;23;20004;-91
2021/10/18 03:54:19;;;;;;;90.18;26.30;;;15.40;99.90;;;;;;6167472;23;20008;-91
2021/10/18 03:56:44;;;;;;;88.05;27.63;;;15.30;99.90;;;;;;6193527;23;20016;-91
2021/10/18 03:59:10;;;;;;;73.70;27.20;;;15.30;99.90;;;;;;6167804;23;19993;-91
2021/10/18 04:01:36;;;;;;;79.53;26.55;;;15.40;99.90;;;;;;6167600;23;20064;-91
2021/10/18 04:04:01;;;;;;;104.25;26.67;;;15.40;99.90;;;;;;6193926;23;19993;-92
2021/10/18 04:06:27;;;;;;;50.28;24.55;;;15.30;99.90;;;;;;6167840;23;20060;-92
2021/10/18 04:08:54;;;;;;;70.40;27.20;;;15.30;99.90;;;;;;6193549;23;19996;-91
2021/10/18 04:11:20;;;;;;;91.70;27.00;;;15.30;99.90;;;;;;6170331;23;20019;-91
2021/10/18 04:13:46;;;;;;;58.53;24.52;;;15.30;99.90;;;;;;6204996;23;19997;-93
2021/10/18 04:16:12;;;;;;;50.38;25.50;;;15.40;99.90;;;;;;6193399;23;20081;-92
2021/10/18 04:18:38;;;;;;;85.82;28.55;;;15.30;99.90;;;;;;6166882;23;20001;-91
2021/10/18 04:21:06;;;;;;;63.03;26.40;;;15.30;99.90;;;;;;6167352;23;20001;-91
2021/10/18 04:23:32;;;;;;;61.22;27.23;;;15.30;99.90;;;;;;6192980;23;20025;-93
2021/10/18 04:25:58;;;;;;;65.18;26.90;;;15.30;99.90;;;;;;6167013;23;20312;-91
2021/10/18 04:28:23;;;;;;;54.38;25.98;;;15.30;99.90;;;;;;6167549;23;20001;-91
2021/10/18 04:30:49;;;;;;;59.40;26.25;;;15.40;99.90;;;;;;6193498;23;20050;-91
2021/10/18 04:33:15;;;;;;;52.42;25.60;;;15.40;99.90;;;;;;6168028;23;20051;-91
2021/10/18 04:35:40;;;;;;;49.63;25.27;;;15.50;99.90;;;;;;6193579;23;20000;-91
2021/10/18 04:38:06;;;;;;;57.72;25.83;;;15.50;99.90;;;;;;6167472;23;19997;-92
2021/10/18 04:40:32;;;;;;;64.25;26.08;;;15.40;99.90;;;;;;6193162;23;19997;-92
2021/10/18 04:42:58;;;;;;;60.15;26.40;;;15.50;99.90;;;;;;6193429;23;20017;-91
2021/10/18 04:45:23;;;;;;;57.00;24.55;;;15.50;99.90;;;;;;6167825;23;20004;-91
2021/10/18 04:47:51;;;;;;;52.10;24.10;;;15.60;99.90;;;;;;6167232;23;20301;-91
2021/10/18 04:50:18;;;;;;;60.20;24.50;;;15.60;99.90;;;;;;6193976;23;20048;-91
2021/10/18 04:52:44;;;;;;;48.28;23.67;;;15.50;99.90;;;;;;6193486;23;20013;-92
2021/10/18 04:55:10;;;;;;;67.63;24.65;;;15.60;99.90;;;;;;6193332;23;20051;-91
2021/10/18 04:57:57;;;;;;;59.03;24.60;;;15.60;99.90;;;;;;6192894;23;20032;-91
2021/10/18 05:00:25;;;;;;;64.15;26.05;;;15.50;99.90;;;;;;6167272;23;20000;-92
2021/10/18 05:02:51;;;;;;;64.50;26.55;;;15.40;99.90;;;;;;6166693;23;20013;-91
2021/10/18 05:05:18;;;;;;;60.38;26.08;;;15.50;99.90;;;;;;6192692;23;20000;-93
2021/10/18 05:07:44;;;;;;;51.95;24.58;;;15.50;99.90;;;;;;6167072;23;20209;-91
2021/10/18 05:10:11;;;;;;;52.90;24.08;;;15.50;99.90;;;;;;6192981;23;19997;-91
2021/10/18 05:12:38;;;;;;;49.08;24.45;;;15.40;99.90;;;;;;6167178;23;20223;-92
2021/10/18 05:15:06;;;;;;;47.65;24.13;;;15.40;99.90;;;;;;6166535;23;19997;-93
2021/10/18 05:17:32;;;;;;;46.40;24.45;;;15.40;99.90;;;;;;6166641;23;20004;-94
2021/10/18 05:19:57;;;;;;;47.58;24.13;;;15.50;99.90;;;;;;6192883;23;20048;-91
2021/10/18 05:22:23;;;;;;;43.10;23.17;;;15.50;99.90;;;;;;6192977;23;20043;-92
2021/10/18 05:24:49;;;;;;;48.60;23.45;;;15.50;99.90;;;;;;6193110;23;20110;-91
2021/10/18 05:27:14;;;;;;;59.10;23.30;;;15.40;99.90;;;;;;6193138;23;20001;-90
2021/10/18 05:29:40;;;;;;;41.92;22.75;;;15.30;99.90;;;;;;6166471;23;19997;-92
2021/10/18 05:32:06;;;;;;;43.58;23.23;;;15.30;99.90;;;;;;6192549;23;20182;-91
2021/10/18 05:34:32;;;;;;;63.47;23.85;;;15.30;99.90;;;;;;6193093;23;20016;-91
2021/10/18 05:36:57;;;;;;;42.80;23.23;;;15.30;99.90;;;;;;6193241;23;20032;-91
2021/10/18 05:39:23;;;;;;;51.15;25.10;;;15.30;99.90;;;;;;6166666;23;20196;-91
2021/10/18 05:41:49;;;;;;;45.67;24.25;;;15.30;99.90;;;;;;6182226;23;20063;-90
2021/10/18 05:44:14;;;;;;;47.58;24.40;;;15.30;99.90;;;;;;6182324;23;20477;-91
2021/10/18 05:46:40;;;;;;;43.92;23.90;;;15.30;99.90;;;;;;6182030;23;20001;-92
2021/10/18 05:49:06;;;;;;;48.00;25.35;;;15.30;99.90;;;;;;6154898;23;20005;-93
2021/10/18 05:51:32;;;;;;;50.72;24.73;;;15.20;99.90;;;;;;6181896;23;20024;-91
2021/10/18 05:53:59;;;;;;;49.55;26.02;;;15.20;99.90;;;;;;6181759;23;19997;-91
2021/10/18 05:56:24;;;;;;;45.58;24.95;;;15.30;99.90;;;;;;6155330;23;20327;-91
2021/10/18 05:58:50;;;;;;;54.50;25.02;;;15.30;99.90;;;;;;6155547;23;20008;-92
2021/10/18 06:01:16;;;;;;;50.50;25.98;;;15.20;99.90;;;;;;6155524;23;20012;-91
2021/10/18 06:03:43;;;;;;;54.90;26.80;;;15.10;99.90;;;;;;6160720;23;20013;-91
2021/10/18 06:06:11;;;;;;;51.17;26.75;;;15.10;99.90;;;;;;6195845;23;20047;-90
2021/10/18 06:08:36;;;;;;;50.17;25.23;;;15.00;99.90;;;;;;6166988;23;20132;-91
2021/10/18 06:11:04;;;;;;;58.97;25.85;;;15.10;99.90;;;;;;6190513;23;20137;-91
2021/10/18 06:13:30;;;;;;;57.17;26.23;;;15.00;99.90;;;;;;6191964;23;20036;-91
2021/10/18 06:15:56;;;;;;;53.60;27.30;;;15.00;99.90;;;;;;6156854;23;20001;-91
2021/10/18 06:18:22;;;;;;;50.13;26.13;;;15.00;99.90;;;;;;6183618;23;20105;-91
2021/10/18 06:20:53;;;;;;;48.67;24.77;;;15.00;99.90;;;;;;6156835;23;20465;-90
2021/10/18 06:23:20;;;;;;;52.47;26.73;;;15.10;99.90;;;;;;6183353;23;20419;-93
2021/10/18 06:25:46;;;;;;;57.33;26.45;;;15.00;99.90;;;;;;6157160;23;20092;-91
2021/10/18 06:28:16;;;;;;;63.00;29.38;;;15.00;99.90;;;;;;6183154;23;20024;-90
2021/10/18 06:30:42;;;;;;;84.25;29.63;;;15.00;99.90;;;;;;6183407;23;20088;-91
2021/10/18 06:33:11;;;;;;;65.57;29.08;;;15.00;99.90;;;;;;6158707;23;20005;-95
2021/10/18 06:35:37;;;;;;;59.88;29.65;;;15.00;99.90;;;;;;6161909;23;20008;-93
2021/10/18 06:38:12;;;;;;;61.97;29.10;;;14.90;99.90;;;;;;6185164;23;20482;-94
2021/10/18 06:40:40;;;;;;;52.88;27.05;;;15.00;99.90;;;;;;6159096;23;20005;-94
2021/10/18 06:43:06;;;;;;;55.67;28.83;;;15.00;99.90;;;;;;6163215;23;20013;-93
2021/10/18 06:45:36;;;;;;;58.17;28.95;;;15.00;99.90;;;;;;6160124;23;20120;-94
2021/10/18 06:48:02;;;;;;;56.65;28.60;;;15.00;99.90;;;;;;6159879;23;20005;-94
2021/10/18 06:50:29;;;;;;;55.92;28.63;;;15.00;99.90;;;;;;6167570;23;19989;-94
2021/10/18 06:52:56;;;;;;;54.72;28.02;;;15.00;99.90;;;;;;6165095;23;20008;-93
2021/10/18 06:55:26;;;;;;;56.75;29.17;;;15.00;99.90;;;;;;6192667;23;20052;-94
2021/10/18 06:57:52;;;;;;;59.17;28.10;;;15.00;99.90;;;;;;6162554;23;20009;-94
2021/10/18 07:00:18;;;;;;;54.97;29.40;;;15.00;99.90;;;;;;6163047;23;20508;-94
2021/10/18 07:02:44;;;;;;;53.00;28.33;;;15.00;99.90;;;;;;6162491;23;19996;-94
2021/10/18 07:05:09;;;;;;;51.20;27.38;;;15.00;99.90;;;;;;6165673;23;19985;-95
2021/10/18 07:07:38;;;;;;;48.65;26.90;;;15.00;99.90;;;;;;6158867;23;20354;-95
2021/10/18 07:10:05;;;;;;;53.05;28.90;;;15.00;99.90;;;;;;6162272;23;20001;-94
2021/10/18 07:12:33;;;;;;;52.70;28.13;;;15.00;99.90;;;;;;6159122;23;20100;-94
2021/10/18 07:17:41;;;;;;;47.92;26.17;;;15.10;99.90;;;;;;6186791;23;20052;-94
2021/10/18 07:20:08;;;;;;;47.25;25.77;;;15.20;99.90;;;;;;6183999;23;20430;-94
2021/10/18 07:22:56;;;;;;;43.72;24.75;;;15.20;99.90;;;;;;6183705;23;20067;-95
2021/10/18 07:25:22;;;;;;;42.80;25.02;;;15.30;99.90;;;;;;6183516;23;20005;-96
2021/10/18 07:27:48;;;;;;;42.00;23.70;;;15.30;99.90;;;;;;6160207;23;20009;-94
2021/10/18 07:30:14;;;;;;;41.08;23.77;;;15.30;99.90;;;;;;6183934;23;20020;-94
2021/10/18 07:32:45;;;;;;;36.85;23.05;;;15.40;99.90;;;;;;6183355;23;20011;-94
2021/10/18 07:35:14;;;;;;;38.45;23.02;;;15.40;99.90;;;;;;6183196;23;20005;-96
2021/10/18 07:37:43;;;;;;;38.30;22.45;;;15.40;99.90;;;;;;6183432;23;20009;-94
2021/10/18 07:40:10;;;;;;;36.08;22.13;;;15.40;99.90;;;;;;6183396;23;20005;-94
2021/10/18 07:42:36;;;;;;;34.45;22.45;;;15.40;99.90;;;;;;6183297;23;20271;-94
2021/10/18 07:45:02;;;;;;;30.38;20.08;;;15.50;99.90;;;;;;6183550;23;20631;-94
2021/10/18 07:47:28;;;;;;;38.03;21.02;;;15.50;99.90;;;;;;6185141;23;20458;-95
2021/10/18 07:49:54;;;;;;;32.78;20.70;;;15.50;99.90;;;;;;6185494;23;20032;-93
2021/10/18 07:52:20;;;;;;;34.92;21.55;;;15.50;99.90;;;;;;6184649;23;20015;-94
2021/10/18 07:54:50;;;;;;;31.70;22.40;;;15.60;99.90;;;;;;6184445;23;20028;-95
2021/10/18 07:57:23;;;;;;;36.38;21.65;;;15.70;99.90;;;;;;6185100;23;20036;-94
2021/10/18 07:59:49;;;;;;;28.98;18.92;;;15.70;99.90;;;;;;6191446;23;20065;-95
2021/10/18 08:02:14;;;;;;;28.20;19.20;;;15.70;99.90;;;;;;6193923;23;20047;-95
2021/10/18 08:04:40;;;;;;;27.60;18.27;;;15.70;99.90;;;;;;6183584;23;20001;-94
2021/10/18 08:07:06;;;;;;;27.55;19.80;;;15.80;99.90;;;;;;6182499;23;20093;-94
2021/10/18 08:09:32;;;;;;;31.58;20.33;;;15.90;99.90;;;;;;6182159;23;20088;-93
2021/10/18 08:11:57;;;;;;;27.17;19.15;;;15.90;99.90;;;;;;6182451;23;20080;-94
2021/10/18 08:14:23;;;;;;;31.08;20.08;;;16.00;99.90;;;;;;6182112;23;20299;-95
2021/10/18 08:16:49;;;;;;;25.95;18.80;;;16.10;99.90;;;;;;6181976;23;20021;-94
2021/10/18 08:19:15;;;;;;;24.55;17.90;;;16.20;99.90;;;;;;6182571;23;20001;-94
2021/10/18 08:21:40;;;;;;;25.50;17.27;;;16.20;99.90;;;;;;6182346;23;20009;-94
2021/10/18 08:24:06;;;;;;;24.60;16.58;;;16.20;99.90;;;;;;6182312;23;20405;-94
2021/10/18 08:26:32;;;;;;;24.50;17.50;;;16.20;99.90;;;;;;6182312;23;20009;-94
2021/10/18 08:28:58;;;;;;;25.40;16.23;;;16.30;99.90;;;;;;6182336;23;20101;-95
2021/10/18 08:31:23;;;;;;;23.85;15.85;;;16.20;99.90;;;;;;6182110;23;20020;-95
2021/10/18 08:33:49;;;;;;;23.60;16.13;;;16.30;99.90;;;;;;6182023;23;20031;-95
2021/10/18 08:36:15;;;;;;;22.33;15.30;;;16.30;99.90;;;;;;6182583;23;20478;-94
2021/10/18 08:38:47;;;;;;;19.80;15.32;;;16.40;99.90;;;;;;6182002;23;20005;-94
2021/10/18 08:41:21;;;;;;;18.13;14.30;;;16.50;99.90;;;;;;6182140;23;20023;-94
2021/10/18 08:46:26;;;;;;;21.98;14.48;;;16.60;99.90;;;;;;6183988;23;20020;-94
2021/10/18 08:48:54;;;;;;;20.73;14.48;;;16.50;99.90;;;;;;6182102;23;20239;-94
2021/10/18 08:51:21;;;;;;;19.70;14.85;;;16.60;99.90;;;;;;6182681;23;20457;-94
2021/10/18 08:53:47;;;;;;;18.88;14.45;;;16.70;99.90;;;;;;6181770;23;20056;-94
2021/10/18 08:56:13;;;;;;;20.92;13.82;;;16.70;99.90;;;;;;6182260;23;20385;-95
2021/10/18 08:58:39;;;;;;;20.67;14.20;;;16.80;99.90;;;;;;6181866;23;20005;-95
2021/10/18 09:01:05;;;;;;;21.10;14.45;;;16.80;99.90;;;;;;6182041;23;20005;-94
2021/10/18 09:03:33;;;;;;;21.30;14.88;;;17.00;99.90;;;;;;6181756;23;20017;-94
2021/10/18 09:06:22;;;;;;;21.63;15.70;;;17.00;99.90;;;;;;6181814;23;20005;-94
2021/10/18 09:08:59;;;;;;;22.10;15.55;;;16.90;99.90;;;;;;6181885;23;20012;-94
2021/10/18 09:11:27;;;;;;;23.55;15.45;;;16.80;99.90;;;;;;6181480;23;20031;-95
2021/10/18 09:13:52;;;;;;;25.63;16.05;;;17.00;99.90;;;;;;6181505;23;20012;-95
2021/10/18 09:16:45;;;;;;;21.10;15.48;;;17.00;99.90;;;;;;6181234;23;20354;-94
2021/10/18 09:19:17;;;;;;;26.98;16.23;;;17.00;99.90;;;;;;6149932;23;20323;-95
2021/10/18 09:21:51;;;;;;;20.70;14.43;;;17.00;99.90;;;;;;6181996;23;20036;-95
2021/10/18 09:24:40;;;;;;;21.75;14.55;;;17.00;99.90;;;;;;6181500;23;20117;-94
2021/10/18 09:27:18;;;;;;;21.33;14.10;;;17.10;99.90;;;;;;6157627;23;20439;-95
2021/10/18 09:29:50;;;;;;;19.20;14.05;;;17.40;99.90;;;;;;6181641;23;20456;-94
2021/10/18 09:32:30;;;;;;;17.02;12.80;;;17.50;99.90;;;;;;6182143;23;20005;-93
2021/10/18 09:35:18;;;;;;;17.98;13.27;;;17.90;99.90;;;;;;6183610;23;20032;-94
2021/10/18 09:37:45;;;;;;;17.83;12.43;;;18.10;99.90;;;;;;6181640;23;20338;-94
2021/10/18 09:40:31;;;;;;;15.68;11.18;;;18.60;99.90;;;;;;6181810;23;20064;-94
2021/10/18 10:53:48;;;;;;;16.15;11.25;;;18.50;99.90;;;;;;6186415;23;20017;-94
2021/10/18 10:56:23;;;;;;;15.27;11.95;;;18.50;99.90;;;;;;6182801;23;20012;-93
2021/10/18 10:58:57;;;;;;;19.23;12.25;;;18.30;99.90;;;;;;6182608;23;20005;-94
2021/10/18 11:02:01;;;;;;;16.83;12.55;;;18.30;99.90;;;;;;6182544;23;20446;-94
2021/10/18 11:04:30;;;;;;;18.05;12.52;;;18.30;99.90;;;;;;6093438;23;20010;-94
2021/10/18 11:07:01;;;;;;;15.40;11.27;;;18.40;99.90;;;;;;6065287;23;20396;-93
2021/10/18 11:09:52;;;;;;;19.17;12.65;;;18.50;99.90;;;;;;6126767;23;20442;-94
2021/10/18 11:12:26;;;;;;;15.60;11.60;;;18.60;99.90;;;;;;6182743;23;20088;-94
2021/10/18 11:15:14;;;;;;;17.13;12.10;;;18.70;99.90;;;;;;6182535;23;20185;-93
2021/10/18 11:17:51;;;;;;;15.93;11.65;;;18.90;99.90;;;;;;6180965;23;20540;-94
2021/10/18 11:20:23;;;;;;;14.40;11.15;;;19.10;99.90;;;;;;6180800;23;20005;-93
2021/10/18 11:23:16;;;;;;;14.85;10.68;;;19.20;99.90;;;;;;6181555;23;20067;-95
2021/10/18 11:25:45;;;;;;;14.85;10.73;;;19.20;99.90;;;;;;6177332;23;20029;-94
2021/10/18 11:28:11;;;;;;;15.75;10.38;;;19.20;99.90;;;;;;6181754;23;20033;-94
2021/10/18 11:30:39;;;;;;;13.32;9.98;;;19.40;99.90;;;;;;6185385;23;19997;-95
2021/10/18 11:33:08;;;;;;;14.57;9.55;;;19.60;99.90;;;;;;6182669;23;20005;-94
2021/10/18 11:35:34;;;;;;;11.52;9.18;;;19.80;99.90;;;;;;6181057;23;20017;-94
2021/10/18 11:38:05;;;;;;;11.85;9.48;;;20.00;99.90;;;;;;6182604;23;20009;-94
2021/10/18 11:40:43;;;;;;;12.15;8.82;;;20.10;99.90;;;;;;6180926;23;20208;-92
2021/10/18 11:43:18;;;;;;;11.63;7.45;;;20.30;99.90;;;;;;6182436;23;20017;-94
2021/10/18 11:45:56;;;;;;;9.38;7.07;;;20.70;99.90;;;;;;6184185;23;20005;-93
2021/10/18 11:48:27;;;;;;;9.73;7.50;;;20.70;99.90;;;;;;6191066;23;20012;-89
2021/10/18 11:50:59;;;;;;;8.63;6.85;;;20.50;99.90;;;;;;6181330;23;20005;-89
2021/10/18 11:53:31;;;;;;;8.82;6.70;;;20.50;99.90;;;;;;6183386;23;20009;-90
2021/10/18 11:56:00;;;;;;;9.13;6.55;;;20.80;99.90;;;;;;6182025;23;20333;-89
2021/10/18 11:58:30;;;;;;;8.25;6.47;;;21.10;99.90;;;;;;6182118;23;20001;-88
2021/10/18 12:01:09;;;;;;;8.98;6.35;;;21.00;99.90;;;;;;6181937;23;20080;-91
2021/10/18 12:03:37;;;;;;;10.73;6.53;;;20.70;99.90;;;;;;6183631;23;20059;-90
2021/10/18 12:06:05;;;;;;;9.82;6.60;;;20.60;99.90;;;;;;6181173;23;20001;-89
2021/10/18 12:08:33;;;;;;;9.95;5.82;;;20.60;99.90;;;;;;6182190;23;20005;-93
2021/10/18 12:11:01;;;;;;;12.68;6.10;;;20.50;99.90;;;;;;6181950;23;19997;-89
2021/10/18 12:13:29;;;;;;;9.02;6.35;;;20.70;99.90;;;;;;6180204;23;20005;-89
2021/10/18 12:16:04;;;;;;;11.10;6.60;;;20.90;99.90;;;;;;6182031;23;20009;-89
2021/10/18 12:18:30;;;;;;;13.20;6.70;;;21.00;99.90;;;;;;6182644;23;20015;-89
2021/10/18 12:21:02;;;;;;;11.20;5.65;;;21.30;99.90;;;;;;6182215;23;20072;-89
2021/10/18 12:23:31;;;;;;;13.80;6.38;;;21.30;99.90;;;;;;6182002;23;20430;-89
2021/10/18 12:26:12;;;;;;;8.50;5.85;;;21.20;99.90;;;;;;6182023;23;20465;-88
2021/10/18 12:29:08;;;;;;;13.02;6.63;;;21.00;99.90;;;;;;6181872;23;20004;-89
2021/10/18 12:31:41;;;;;;;8.90;5.68;;;20.80;99.90;;;;;;6181810;23;20127;-90
2021/10/18 12:34:23;;;;;;;12.55;6.25;;;20.80;99.90;;;;;;6182019;23;20001;-90
2021/10/18 12:37:03;;;;;;;10.65;6.10;;;20.80;99.90;;;;;;6183531;23;20009;-90
2021/10/18 12:39:37;;;;;;;6.75;5.10;;;21.30;99.90;;;;;;6181460;23;20033;-88
2021/10/18 12:42:12;;;;;;;8.50;5.25;;;21.50;99.90;;;;;;6180450;23;20024;-88
2021/10/18 12:44:44;;;;;;;7.13;4.72;;;21.70;99.90;;;;;;6181822;23;20264;-88
2021/10/18 12:47:18;;;;;;;7.65;4.38;;;21.90;99.90;;;;;;6180794;23;20025;-89
2021/10/18 12:49:52;;;;;;;5.55;4.43;;;22.10;99.90;;;;;;6181536;23;20020;-89
2021/10/18 12:52:31;;;;;;;4.75;3.78;;;21.90;99.90;;;;;;6181510;23;20063;-90
2021/10/18 12:55:27;;;;;;;5.78;4.22;;;21.50;99.90;;;;;;6182462;23;20021;-89
2021/10/18 12:58:01;;;;;;;5.93;4.47;;;21.50;99.90;;;;;;6182026;23;20001;-88
2021/10/18 13:00:32;;;;;;;5.57;4.18;;;21.50;99.90;;;;;;6181376;23;20001;-89
2021/10/18 13:03:07;;;;;;;5.50;4.10;;;21.70;99.90;;;;;;6179811;23;20350;-88
2021/10/18 13:05:37;;;;;;;6.07;4.70;;;21.80;99.90;;;;;;6179724;23;20002;-90
2021/10/18 13:08:03;;;;;;;10.10;4.63;;;22.00;99.90;;;;;;6181245;23;20020;-88
2021/10/18 13:10:35;;;;;;;7.25;4.28;;;22.10;99.90;;;;;;6181145;23;20460;-90
2021/10/18 13:13:12;;;;;;;7.20;4.65;;;22.10;99.90;;;;;;6179633;23;20431;-89
2021/10/18 13:15:39;;;;;;;7.75;4.68;;;22.00;99.90;;;;;;6181321;23;20084;-89
2021/10/18 13:18:06;;;;;;;7.38;4.30;;;21.90;99.90;;;;;;6181679;23;20012;-88
2021/10/18 13:20:32;;;;;;;6.70;4.45;;;21.90;99.90;;;;;;6179631;23;20009;-89
2021/10/18 13:23:00;;;;;;;5.05;4.07;;;21.70;99.90;;;;;;6181124;23;20088;-88
2021/10/18 13:25:28;;;;;;;5.55;4.43;;;21.50;99.90;;;;;;6181143;23;19997;-89
2021/10/18 13:27:55;;;;;;;4.95;4.00;;;21.60;99.90;;;;;;6181252;23;20075;-89
2021/10/18 13:30:21;;;;;;;4.82;4.25;;;21.50;99.90;;;;;;6179573;23;20044;-89
2021/10/18 13:32:49;;;;;;;7.72;4.82;;;21.30;99.90;;;;;;6180962;23;20438;-90
2021/10/18 13:35:16;;;;;;;4.53;3.80;;;21.40;99.90;;;;;;6188236;23;20200;-91
2021/10/18 13:37:44;;;;;;;7.40;4.05;;;21.30;99.90;;;;;;6185813;23;20000;-93
2021/10/18 13:40:12;;;;;;;5.65;4.32;;;21.20;99.90;;;;;;6194484;23;20001;-94
2021/10/18 13:42:42;;;;;;;6.68;4.03;;;21.10;99.90;;;;;;6183382;23;20016;-93
2021/10/18 13:45:10;;;;;;;4.75;3.95;;;21.10;99.90;;;;;;6179268;23;20009;-93
2021/10/18 13:47:36;;;;;;;5.28;4.13;;;21.10;99.90;;;;;;6179235;23;19997;-92
2021/10/18 13:50:02;;;;;;;6.90;4.15;;;20.90;99.90;;;;;;6178491;23;20009;-93